createdAt,value
2023-04-04T00:01:40.055Z,2.03
2023-04-04T00:04:06.778Z,1.52
2023-04-04T00:06:33.415Z,1.77
2023-04-04T00:09:00.127Z,1.60
2023-04-04T00:11:27.056Z,1.75
2023-04-04T00:13:54.883Z,1.75
2023-04-04T00:16:21.909Z,1.63
2023-04-04T00:18:48.739Z,1.65
2023-04-04T00:21:15.428Z,1.92
2023-04-04T00:23:42.272Z,2.03
2023-04-04T00:26:09.183Z,1.75
2023-04-04T00:28:36.158Z,2.00
2023-04-04T00:31:03.022Z,2.17
2023-04-04T00:33:29.694Z,2.30
2023-04-04T00:35:56.421Z,1.90
2023-04-04T00:38:23.409Z,1.85
2023-04-04T00:40:50.388Z,1.92
2023-04-04T00:43:17.442Z,1.73
2023-04-04T00:45:44.186Z,1.98
2023-04-04T00:48:10.929Z,2.30
2023-04-04T00:50:38.304Z,2.03
2023-04-04T00:53:05.286Z,2.50
2023-04-04T00:55:32.010Z,2.60
2023-04-04T00:57:58.859Z,2.28
2023-04-04T01:00:25.639Z,2.95
2023-04-04T01:02:52.431Z,2.15
2023-04-04T01:05:19.515Z,2.20
2023-04-04T01:07:46.290Z,2.30
2023-04-04T01:10:13.562Z,2.45
2023-04-04T01:12:40.526Z,2.75
2023-04-04T01:15:07.858Z,2.38
2023-04-04T01:17:34.542Z,2.38
2023-04-04T01:20:08.782Z,2.17
2023-04-04T01:22:38.892Z,2.60
2023-04-04T01:25:05.914Z,1.77
2023-04-04T01:27:32.623Z,2.30
2023-04-04T01:29:59.604Z,3.08
2023-04-04T01:32:28.183Z,2.85
2023-04-04T01:34:59.270Z,2.63
2023-04-04T01:37:48.924Z,2.40
2023-04-04T01:40:21.735Z,2.40
2023-04-04T01:42:48.500Z,2.60
2023-04-04T01:45:15.159Z,2.25
2023-04-04T01:47:42.129Z,2.28
2023-04-04T01:50:09.837Z,2.25
2023-04-04T01:52:36.661Z,3.22
2023-04-04T01:55:03.846Z,3.33
2023-04-04T01:57:30.810Z,2.47
2023-04-04T01:59:57.434Z,1.90
2023-04-04T02:02:24.133Z,2.33
2023-04-04T02:04:50.822Z,2.33
2023-04-04T02:07:17.459Z,2.40
2023-04-04T02:09:44.088Z,1.70
2023-04-04T02:12:11.008Z,2.22
2023-04-04T02:14:37.671Z,2.85
2023-04-04T02:17:04.654Z,2.50
2023-04-04T02:19:31.688Z,2.55
2023-04-04T02:21:59.039Z,2.25
2023-04-04T02:24:25.718Z,2.83
2023-04-04T02:26:52.392Z,3.63
2023-04-04T02:29:19.099Z,3.00
2023-04-04T02:31:48.466Z,2.88
2023-04-04T02:34:15.135Z,2.45
2023-04-04T02:36:41.830Z,2.28
2023-04-04T02:39:08.468Z,1.90
2023-04-04T02:41:35.206Z,2.72
2023-04-04T02:44:02.033Z,2.83
2023-04-04T02:46:28.965Z,2.60
2023-04-04T02:48:55.652Z,2.78
2023-04-04T02:51:22.365Z,2.88
2023-04-04T02:53:48.981Z,2.45
2023-04-04T02:56:15.740Z,3.00
2023-04-04T02:58:42.773Z,2.20
2023-04-04T03:01:10.936Z,2.50
2023-04-04T03:03:37.814Z,2.63
2023-04-04T03:06:04.599Z,3.15
2023-04-04T03:08:31.326Z,2.72
2023-04-04T03:10:58.072Z,3.78
2023-04-04T03:13:24.754Z,2.88
2023-04-04T03:15:51.839Z,3.40
2023-04-04T03:18:18.598Z,3.47
2023-04-04T03:20:45.430Z,3.05
2023-04-04T03:23:12.185Z,2.80
2023-04-04T03:25:38.880Z,2.83
2023-04-04T03:28:09.558Z,2.70
2023-04-04T03:30:36.234Z,3.10
2023-04-04T03:33:06.091Z,3.20
2023-04-04T03:35:33.008Z,3.20
2023-04-04T03:38:02.850Z,2.58
2023-04-04T03:40:29.685Z,3.30
2023-04-04T03:42:56.367Z,3.20
2023-04-04T03:45:23.071Z,3.38
2023-04-04T03:47:49.914Z,3.22
2023-04-04T03:50:16.667Z,3.72
2023-04-04T03:52:43.514Z,3.60
2023-04-04T03:55:10.172Z,3.53
2023-04-04T03:57:36.878Z,3.05
2023-04-04T04:00:04.596Z,3.33
2023-04-04T04:02:31.373Z,4.15
2023-04-04T04:05:00.790Z,3.60
2023-04-04T04:07:27.409Z,3.72
2023-04-04T04:09:54.157Z,2.42
2023-04-04T04:12:20.897Z,3.42
2023-04-04T04:14:47.579Z,3.40
2023-04-04T04:17:14.271Z,3.45
2023-04-04T04:19:40.910Z,2.63
2023-04-04T04:22:07.647Z,2.90
2023-04-04T04:24:37.023Z,3.90
2023-04-04T04:27:03.798Z,4.35
2023-04-04T04:29:31.380Z,3.88
2023-04-04T04:31:58.201Z,5.32
2023-04-04T04:34:25.017Z,4.85
2023-04-04T04:36:51.663Z,3.95
2023-04-04T04:39:18.382Z,3.65
2023-04-04T04:41:45.139Z,3.88
2023-04-04T04:44:11.954Z,3.80
2023-04-04T04:46:38.704Z,4.07
2023-04-04T04:49:05.489Z,4.10
2023-04-04T04:51:32.197Z,4.10
2023-04-04T04:53:58.949Z,3.88
2023-04-04T04:56:25.816Z,3.95
2023-04-04T04:58:52.554Z,5.63
2023-04-04T05:01:19.338Z,4.32
2023-04-04T05:03:46.128Z,3.90
2023-04-04T05:06:13.418Z,4.47
2023-04-04T05:08:40.251Z,4.45
2023-04-04T05:11:06.913Z,4.45
2023-04-04T05:13:33.769Z,4.28
2023-04-04T05:16:00.608Z,4.80
2023-04-04T05:18:27.335Z,4.50
2023-04-04T05:20:54.539Z,4.50
2023-04-04T05:23:24.508Z,4.75
2023-04-04T05:28:21.027Z,4.57
2023-04-04T05:30:49.230Z,4.43
2023-04-04T05:33:16.082Z,4.90
2023-04-04T05:35:42.990Z,4.40
2023-04-04T05:38:09.840Z,4.72
2023-04-04T05:40:36.724Z,4.63
2023-04-04T05:43:03.457Z,4.53
2023-04-04T05:45:30.901Z,4.60
2023-04-04T05:47:57.827Z,4.53
2023-04-04T05:50:24.613Z,5.28
2023-04-04T05:52:54.395Z,4.70
2023-04-04T05:55:21.220Z,5.35
2023-04-04T05:57:48.927Z,5.13
2023-04-04T06:00:16.701Z,5.38
2023-04-04T06:02:43.956Z,5.00
2023-04-04T06:05:10.979Z,5.78
2023-04-04T06:07:38.367Z,5.90
2023-04-04T06:10:05.648Z,5.15
2023-04-04T06:12:32.461Z,5.15
2023-04-04T06:14:59.594Z,5.47
2023-04-04T06:17:26.373Z,5.07
2023-04-04T06:19:53.055Z,4.95
2023-04-04T06:22:19.721Z,5.07
2023-04-04T06:24:46.474Z,5.13
2023-04-04T06:27:13.444Z,4.95
2023-04-04T06:29:40.155Z,5.30
2023-04-04T06:32:06.856Z,4.65
2023-04-04T06:34:33.603Z,5.32
2023-04-04T06:37:00.517Z,4.60
2023-04-04T06:39:27.278Z,4.85
2023-04-04T06:41:53.931Z,4.82
2023-04-04T06:44:20.571Z,5.07
2023-04-04T06:46:47.303Z,4.40
2023-04-04T06:49:13.974Z,5.13
2023-04-04T06:51:40.887Z,4.43
2023-04-04T06:54:07.563Z,5.05
2023-04-04T06:56:34.435Z,4.53
2023-04-04T06:59:01.129Z,4.85
2023-04-04T07:01:27.867Z,5.20
2023-04-04T07:03:54.579Z,5.35
2023-04-04T07:06:25.747Z,4.75
2023-04-04T07:08:52.969Z,4.25
2023-04-04T07:11:19.776Z,4.20
2023-04-04T07:13:49.524Z,3.83
2023-04-04T07:16:19.075Z,4.72
2023-04-04T07:18:49.466Z,3.30
2023-04-04T07:21:16.116Z,3.97
2023-04-04T07:23:43.106Z,4.18
2023-04-04T07:26:09.782Z,4.15
2023-04-04T07:28:36.503Z,3.38
2023-04-04T07:31:03.472Z,4.10
2023-04-04T07:33:33.284Z,4.35
2023-04-04T07:36:01.566Z,3.53
2023-04-04T07:38:28.366Z,3.90
2023-04-04T07:40:55.075Z,4.15
2023-04-04T07:43:21.821Z,3.70
2023-04-04T07:45:48.600Z,2.83
2023-04-04T07:48:15.562Z,3.40
2023-04-04T07:50:42.418Z,3.17
2023-04-04T07:53:09.107Z,3.42
2023-04-04T07:55:35.831Z,3.45
2023-04-04T07:58:02.499Z,3.22
2023-04-04T08:00:29.206Z,2.85
2023-04-04T08:02:56.279Z,2.50
2023-04-04T08:05:23.445Z,3.17
2023-04-04T08:07:50.708Z,2.72
2023-04-04T08:10:18.291Z,2.05
2023-04-04T08:12:45.455Z,2.42
2023-04-04T08:15:12.269Z,2.58
2023-04-04T08:17:39.544Z,2.50
2023-04-04T08:20:06.747Z,1.90
2023-04-04T08:22:33.526Z,1.90
2023-04-04T08:25:00.336Z,2.00
2023-04-04T08:27:27.078Z,2.13
2023-04-04T08:29:53.918Z,1.95
2023-04-04T08:32:20.633Z,2.30
2023-04-04T08:34:47.396Z,1.88
2023-04-04T08:37:14.100Z,2.58
2023-04-04T08:39:40.780Z,1.80
2023-04-04T08:42:07.599Z,1.85
2023-04-04T08:44:34.518Z,1.90
2023-04-04T08:47:02.825Z,1.70
2023-04-04T08:49:30.384Z,2.00
2023-04-04T08:51:57.217Z,1.50
2023-04-04T08:54:25.700Z,1.85
2023-04-04T08:56:53.160Z,1.95
2023-04-04T08:59:22.538Z,1.98
2023-04-04T09:01:49.322Z,1.90
2023-04-04T09:04:16.137Z,1.45
2023-04-04T09:06:42.797Z,1.50
2023-04-04T09:09:09.511Z,2.00
2023-04-04T09:11:36.282Z,1.70
2023-04-04T09:14:02.954Z,2.10
2023-04-04T09:16:29.662Z,1.73
2023-04-04T09:18:56.309Z,1.80
2023-04-04T09:21:23.351Z,1.80
2023-04-04T09:23:58.995Z,1.80
2023-04-04T09:28:53.353Z,1.75
2023-04-04T09:31:20.072Z,2.20
2023-04-04T09:33:51.443Z,2.22
2023-04-04T09:36:18.531Z,2.45
2023-04-04T09:38:45.671Z,1.70
2023-04-04T09:41:16.142Z,1.60
2023-04-04T09:43:47.863Z,1.83
2023-04-04T09:46:14.699Z,1.77
2023-04-04T09:48:44.516Z,1.80
2023-04-04T09:51:12.789Z,1.95
2023-04-04T09:56:44.580Z,1.65
2023-04-04T09:59:11.719Z,1.90
2023-04-04T10:01:38.515Z,1.63
2023-04-04T10:04:05.308Z,1.80
2023-04-04T10:06:32.005Z,1.55
2023-04-04T10:08:58.737Z,1.58
2023-04-04T10:11:32.493Z,1.60
2023-04-04T10:14:02.737Z,1.58
2023-04-04T10:16:32.770Z,1.73
2023-04-04T10:19:01.356Z,1.52
2023-04-04T10:21:28.121Z,1.55
2023-04-04T10:23:54.746Z,1.77
2023-04-04T10:26:22.972Z,2.00
2023-04-04T10:28:49.620Z,1.33
2023-04-04T10:31:25.857Z,1.67
2023-04-04T10:34:08.684Z,1.52
2023-04-04T10:36:45.416Z,1.73
2023-04-04T10:39:18.584Z,1.98
2023-04-04T10:41:46.350Z,1.88
2023-04-04T10:44:22.103Z,2.00
2023-04-04T10:46:50.703Z,2.10
2023-04-04T10:49:17.447Z,1.95
2023-04-04T10:51:54.828Z,2.00
2023-04-04T10:54:23.341Z,1.58
2023-04-04T10:56:50.075Z,1.75
2023-04-04T10:59:17.829Z,1.60
2023-04-04T11:01:57.504Z,1.80
2023-04-04T11:04:32.537Z,1.83
2023-04-04T11:07:12.970Z,1.60
2023-04-04T11:09:53.348Z,1.40
2023-04-04T11:12:27.671Z,1.70
2023-04-04T11:15:14.836Z,1.70
2023-04-04T11:17:44.671Z,1.55
2023-04-04T11:20:11.670Z,1.90
2023-04-04T11:22:40.809Z,1.80
2023-04-04T11:27:55.590Z,1.90
2023-04-04T11:30:22.286Z,1.90
2023-04-04T11:32:59.891Z,1.80
2023-04-04T11:35:30.804Z,1.80
2023-04-04T11:37:57.454Z,2.10
2023-04-04T11:40:53.686Z,1.95
2023-04-04T11:43:20.547Z,1.90
2023-04-04T11:45:47.545Z,1.77
2023-04-04T11:48:17.596Z,1.95
2023-04-04T11:50:45.833Z,1.48
2023-04-04T11:53:14.138Z,1.70
2023-04-04T11:55:46.975Z,1.38
2023-04-04T11:58:15.016Z,2.17
2023-04-04T12:00:41.725Z,1.92
2023-04-04T12:03:10.119Z,2.05
2023-04-04T12:05:46.045Z,1.70
2023-04-04T12:08:13.277Z,1.33
2023-04-04T12:10:40.188Z,1.83
2023-04-04T12:13:10.289Z,1.60
2023-04-04T12:15:37.311Z,2.20
2023-04-04T12:18:07.626Z,1.58
2023-04-04T12:20:35.026Z,1.80
2023-04-04T12:23:01.734Z,1.80
2023-04-04T12:25:28.408Z,2.13
2023-04-04T12:27:55.084Z,1.80
2023-04-04T12:30:21.843Z,1.80
2023-04-04T12:32:48.958Z,1.73
2023-04-04T12:35:15.928Z,1.80
2023-04-04T12:38:16.308Z,2.05
2023-04-04T12:40:44.594Z,1.88
2023-04-04T12:43:16.700Z,1.95
2023-04-04T12:45:44.016Z,1.60
2023-04-04T12:48:12.195Z,2.00
2023-04-04T12:50:58.163Z,2.00
2023-04-04T12:53:29.734Z,1.92
2023-04-04T12:56:03.091Z,2.53
2023-04-04T12:58:31.128Z,2.00
2023-04-04T13:00:59.631Z,2.25
2023-04-04T13:03:26.603Z,2.17
2023-04-04T13:05:53.367Z,2.60
2023-04-04T13:08:21.607Z,2.03
2023-04-04T13:10:56.403Z,2.00
2023-04-04T13:13:38.839Z,2.33
2023-04-04T13:16:09.225Z,2.65
2023-04-04T13:18:40.832Z,1.90
2023-04-04T13:21:07.683Z,2.00
2023-04-04T13:23:38.447Z,1.80
2023-04-04T13:26:06.132Z,1.80
2023-04-04T13:28:32.778Z,2.22
2023-04-04T13:31:05.615Z,1.83
2023-04-04T13:33:33.058Z,2.33
2023-04-04T13:36:00.236Z,2.35
2023-04-04T13:38:27.613Z,2.00
2023-04-04T13:40:54.938Z,2.42
2023-04-04T13:43:21.725Z,2.00
2023-04-04T13:45:48.544Z,2.28
2023-04-04T13:48:15.443Z,2.70
2023-04-04T13:50:44.998Z,2.78
2023-04-04T13:53:11.685Z,2.45
2023-04-04T13:55:40.107Z,3.20
2023-04-04T13:58:08.528Z,2.65
2023-04-04T14:00:36.544Z,2.80
2023-04-04T14:03:03.447Z,2.50
2023-04-04T14:05:30.255Z,2.47
2023-04-04T14:07:56.886Z,2.60
2023-04-04T14:10:23.522Z,2.65
2023-04-04T14:12:50.159Z,2.45
2023-04-04T14:15:17.128Z,2.75
2023-04-04T14:17:43.866Z,2.67
2023-04-04T14:20:11.122Z,2.75
2023-04-04T14:22:37.790Z,2.45
2023-04-04T14:25:04.912Z,2.53
2023-04-04T14:27:31.630Z,2.58
2023-04-04T14:29:58.335Z,2.70
2023-04-04T14:32:25.111Z,3.22
2023-04-04T14:34:51.906Z,3.10
2023-04-04T14:37:18.604Z,2.78
2023-04-04T14:39:45.369Z,2.72
2023-04-04T14:42:12.037Z,3.13
2023-04-04T14:44:38.754Z,2.92
2023-04-04T14:47:05.632Z,3.05
2023-04-04T14:49:32.630Z,2.95
2023-04-04T14:51:59.314Z,2.85
2023-04-04T14:54:26.003Z,2.83
2023-04-04T14:56:52.734Z,2.72
2023-04-04T14:59:19.405Z,4.00
2023-04-04T15:01:46.286Z,2.97
2023-04-04T15:04:13.057Z,3.53
2023-04-04T15:06:39.865Z,3.13
2023-04-04T15:09:06.621Z,2.75
2023-04-04T15:11:33.465Z,2.90
2023-04-04T15:14:00.142Z,2.72
2023-04-04T15:16:26.908Z,3.30
2023-04-04T15:18:53.617Z,2.88
2023-04-04T15:21:20.354Z,3.05
2023-04-04T15:23:47.058Z,4.35
2023-04-04T15:26:13.870Z,3.40
2023-04-04T15:28:40.487Z,3.40
2023-04-04T15:31:07.141Z,3.38
2023-04-04T15:33:33.975Z,2.90
2023-04-04T15:36:00.801Z,3.78
2023-04-04T15:38:27.618Z,3.58
2023-04-04T15:40:54.356Z,4.22
2023-04-04T15:43:21.003Z,3.55
2023-04-04T15:45:47.923Z,3.83
2023-04-04T15:48:14.996Z,3.78
2023-04-04T15:50:42.404Z,3.83
2023-04-04T15:53:09.185Z,3.58
2023-04-04T15:55:36.052Z,3.70
2023-04-04T15:58:02.751Z,3.90
2023-04-04T16:00:29.501Z,3.67
2023-04-04T16:02:59.504Z,4.18
2023-04-04T16:05:26.419Z,3.30
2023-04-04T16:07:56.131Z,4.20
2023-04-04T16:10:22.985Z,3.50
2023-04-04T16:12:49.645Z,4.00
2023-04-04T16:15:16.403Z,3.92
2023-04-04T16:17:43.415Z,3.40
2023-04-04T16:20:10.709Z,4.07
2023-04-04T16:22:37.379Z,3.33
2023-04-04T16:25:04.638Z,3.67
2023-04-04T16:27:31.309Z,3.95
2023-04-04T16:29:58.070Z,3.90
2023-04-04T16:32:24.756Z,3.75
2023-04-04T16:34:51.522Z,3.95
2023-04-04T16:37:18.511Z,3.75
2023-04-04T16:39:45.148Z,3.20
2023-04-04T16:42:11.820Z,4.70
2023-04-04T16:44:38.488Z,4.10
2023-04-04T16:47:05.366Z,4.00
2023-04-04T16:49:32.096Z,4.28
2023-04-04T16:51:58.744Z,4.50
2023-04-04T16:54:26.631Z,3.90
2023-04-04T16:56:53.316Z,3.88
2023-04-04T16:59:20.038Z,3.78
2023-04-04T17:01:47.080Z,4.38
2023-04-04T17:04:13.894Z,3.92
2023-04-04T17:06:40.572Z,3.72
2023-04-04T17:09:07.285Z,4.35
2023-04-04T17:11:34.366Z,3.92
2023-04-04T17:14:00.975Z,3.70
2023-04-04T17:16:27.743Z,3.97
2023-04-04T17:18:54.413Z,4.22
2023-04-04T17:21:21.133Z,4.25
2023-04-04T17:23:48.311Z,4.30
2023-04-04T17:26:14.962Z,4.28
2023-04-04T17:28:41.805Z,4.07
2023-04-04T17:31:08.466Z,4.90
2023-04-04T17:33:35.160Z,4.18
2023-04-04T17:36:02.571Z,4.30
2023-04-04T17:38:29.184Z,4.63
2023-04-04T17:40:55.830Z,3.95
2023-04-04T17:43:22.559Z,4.45
2023-04-04T17:45:49.209Z,4.10
2023-04-04T17:48:16.242Z,4.18
2023-04-04T17:50:43.205Z,3.95
2023-04-04T17:53:09.974Z,4.22
2023-04-04T17:55:36.677Z,4.15
2023-04-04T17:58:03.548Z,4.18
2023-04-04T18:00:30.224Z,3.92
2023-04-04T18:02:56.978Z,4.07
2023-04-04T18:05:23.720Z,4.47
2023-04-04T18:07:50.358Z,4.82
2023-04-04T18:10:17.656Z,4.45
2023-04-04T18:12:44.981Z,4.38
2023-04-04T18:15:11.989Z,4.68
2023-04-04T18:17:39.227Z,4.50
2023-04-04T18:20:07.301Z,4.70
2023-04-04T18:22:37.044Z,4.85
2023-04-04T18:25:03.858Z,5.07
2023-04-04T18:27:30.533Z,4.90
2023-04-04T18:29:57.234Z,5.50
2023-04-04T18:32:24.145Z,5.50
2023-04-04T18:34:51.025Z,11.20
2023-04-04T18:37:17.796Z,5.80
2023-04-04T18:39:44.536Z,4.95
2023-04-04T18:42:11.212Z,5.35
2023-04-04T18:44:38.016Z,5.15
2023-04-04T18:47:04.759Z,5.50
2023-04-04T18:49:31.728Z,6.05
2023-04-04T18:51:58.499Z,5.30
2023-04-04T18:54:25.297Z,5.40
2023-04-04T18:56:51.950Z,5.93
2023-04-04T18:59:18.713Z,5.28
2023-04-04T19:01:45.440Z,5.68
2023-04-04T19:04:12.227Z,6.10
2023-04-04T19:06:38.869Z,6.13
2023-04-04T19:09:05.663Z,5.93
2023-04-04T19:11:32.330Z,6.45
2023-04-04T19:13:59.148Z,6.60
2023-04-04T19:16:25.935Z,6.57
2023-04-04T19:18:52.762Z,6.97
2023-04-04T19:21:19.427Z,6.57
2023-04-04T19:23:46.353Z,6.97
2023-04-04T19:26:13.065Z,7.45
2023-04-04T19:28:39.976Z,7.05
2023-04-04T19:31:09.566Z,7.07
2023-04-04T19:36:12.439Z,7.18
2023-04-04T19:38:40.189Z,8.13
2023-04-04T19:41:33.863Z,6.82
2023-04-04T19:44:00.560Z,7.55
2023-04-04T19:46:29.198Z,7.20
2023-04-04T19:48:56.819Z,7.20
2023-04-04T19:51:24.206Z,7.25
2023-04-04T19:53:58.125Z,7.32
2023-04-04T19:56:25.888Z,6.78
2023-04-04T19:59:02.944Z,7.70
2023-04-04T20:01:30.526Z,7.03
2023-04-04T20:03:57.809Z,7.45
2023-04-04T20:06:28.736Z,7.80
2023-04-04T20:08:56.396Z,8.13
2023-04-04T20:11:31.323Z,7.40
2023-04-04T20:13:59.491Z,7.43
2023-04-04T20:16:26.400Z,7.55
2023-04-04T20:18:53.827Z,7.03
2023-04-04T20:21:21.844Z,8.57
2023-04-04T20:23:56.542Z,6.45
2023-04-04T20:26:35.554Z,5.82
2023-04-04T20:29:04.528Z,7.18
2023-04-04T20:31:31.234Z,5.78
2023-04-04T20:33:57.890Z,7.45
2023-04-04T20:36:24.507Z,6.53
2023-04-04T20:38:51.253Z,6.13
2023-04-04T20:41:19.162Z,6.13
2023-04-04T20:43:50.554Z,6.80
2023-04-04T20:46:18.891Z,6.55
2023-04-04T20:48:45.764Z,5.70
2023-04-04T20:51:33.481Z,6.05
2023-04-04T20:54:01.991Z,6.07
2023-04-04T20:56:35.833Z,5.57
2023-04-04T20:59:02.878Z,6.10
2023-04-04T21:01:29.682Z,5.78
2023-04-04T21:03:56.555Z,5.32
2023-04-04T21:06:23.181Z,5.05
2023-04-04T21:08:52.812Z,5.72
2023-04-04T21:11:26.792Z,5.38
2023-04-04T21:13:55.115Z,6.20
2023-04-04T21:16:24.746Z,6.25
2023-04-04T21:21:21.671Z,5.80
2023-04-04T21:23:58.772Z,6.25
2023-04-04T21:26:35.801Z,5.72
2023-04-04T21:29:15.677Z,6.43
2023-04-04T21:31:42.672Z,6.05
2023-04-04T21:34:14.070Z,5.97
2023-04-04T21:36:40.876Z,5.88
2023-04-04T21:39:10.774Z,6.32
2023-04-04T21:44:05.307Z,5.45
2023-04-04T21:46:36.186Z,6.05
2023-04-04T21:49:03.026Z,5.25
2023-04-04T21:51:29.717Z,6.07
2023-04-04T21:53:56.422Z,5.90
2023-04-04T21:56:23.214Z,5.95
2023-04-04T21:58:49.886Z,5.60
2023-04-04T22:01:16.614Z,6.45
2023-04-04T22:03:43.524Z,6.30
2023-04-04T22:06:10.163Z,5.38
2023-04-04T22:08:36.928Z,6.15
2023-04-04T22:11:03.828Z,5.63
2023-04-04T22:13:30.512Z,6.63
2023-04-04T22:15:57.811Z,6.22
2023-04-04T22:18:24.747Z,6.85
2023-04-04T22:20:51.478Z,6.40
2023-04-04T22:23:18.273Z,6.60
2023-04-04T22:25:44.952Z,5.72
2023-04-04T22:28:11.644Z,6.88
2023-04-04T22:30:38.484Z,6.45
2023-04-04T22:33:05.822Z,5.68
2023-04-04T22:35:32.774Z,6.53
2023-04-04T22:37:59.436Z,6.20
2023-04-04T22:40:26.741Z,6.22
2023-04-04T22:42:53.750Z,6.40
2023-04-04T22:45:20.542Z,5.53
2023-04-04T22:47:47.743Z,6.68
2023-04-04T22:50:18.277Z,7.47
2023-04-04T22:52:44.994Z,6.72
2023-04-04T22:55:13.601Z,6.43
2023-04-04T22:57:40.290Z,6.60
2023-04-04T23:00:07.761Z,7.18
2023-04-04T23:02:34.429Z,6.45
2023-04-04T23:05:01.053Z,7.13
2023-04-04T23:07:27.704Z,6.10
2023-04-04T23:09:54.372Z,6.70
2023-04-04T23:12:21.006Z,7.53
2023-04-04T23:14:47.691Z,6.13
2023-04-04T23:17:14.309Z,7.68
2023-04-04T23:19:40.962Z,7.20
2023-04-04T23:22:07.895Z,7.68
2023-04-04T23:24:34.531Z,6.47
2023-04-04T23:27:01.137Z,7.65
2023-04-04T23:29:27.796Z,7.22
2023-04-04T23:31:56.979Z,7.20
2023-04-04T23:34:23.822Z,7.00
2023-04-04T23:36:50.621Z,8.65
2023-04-04T23:39:17.420Z,8.00
2023-04-04T23:41:44.261Z,6.32
2023-04-04T23:44:10.894Z,7.75
2023-04-04T23:46:37.774Z,7.55
2023-04-04T23:49:04.772Z,8.32
2023-04-04T23:51:31.506Z,7.68
2023-04-04T23:53:58.933Z,7.22
2023-04-04T23:56:25.620Z,7.35
2023-04-04T23:58:52.390Z,7.85
